Time;durP1;ratioP1;P1;durP2;ratioP2;P2;SDS_P1;SDS_P2;PMS_P1;PMS_P2;Temp;Humidity;BMP_temperature;BMP_pressure;BME280_temperature;BME280_humidity;BME280_pressure;Samples;Min_cycle;Max_cycle;Signal;HPM_P1;HPM_P2
2022/08/13 00:01:15;;;;;;;2.45;1.33;;;;;;;14.04;60.04;97341.13;5016050;28;20046;-58
2022/08/13 00:03:44;;;;;;;2.15;1.48;;;;;;;14.09;59.89;97335.69;5016151;28;20047;-58
2022/08/13 00:08:58;;;;;;;2.67;1.42;;;;;;;13.99;60.20;97330.25;5018449;28;20041;-58
2022/08/13 00:14:34;;;;;;;3.38;1.27;;;;;;;14.09;59.75;97335.69;5026487;28;20404;-58
2022/08/13 00:17:08;;;;;;;2.55;1.30;;;;;;;14.22;59.12;97326.09;5024773;28;20076;-58
2022/08/13 00:19:39;;;;;;;2.45;1.20;;;;;;;14.19;59.00;97315.75;5025936;28;20052;-58
2022/08/13 00:22:08;;;;;;;2.75;1.33;;;;;;;14.28;58.91;97321.47;5015259;28;20482;-58
2022/08/13 00:24:56;;;;;;;2.38;1.10;;;;;;;14.36;58.50;97314.63;5023449;28;20056;-58
2022/08/13 00:27:25;;;;;;;3.15;1.42;;;;;;;14.30;58.68;97314.63;5023358;28;20103;-58
2022/08/13 00:29:56;;;;;;;2.80;1.20;;;;;;;14.40;58.46;97311.06;5025652;28;20041;-56
2022/08/13 00:32:31;;;;;;;2.38;1.10;;;;;;;14.36;58.41;97310.00;5018281;28;20398;-58
2022/08/13 00:34:59;;;;;;;5.28;1.33;;;;;;;14.28;58.79;97307.84;5026017;28;20120;-57
2022/08/13 00:37:27;;;;;;;3.25;1.40;;;;;;;14.01;60.25;97304.38;5006140;28;20045;-56
2022/08/13 00:39:59;;;;;;;2.35;1.30;;;;;;;13.96;60.41;97306.31;5010655;28;20045;-57
2022/08/13 00:42:46;;;;;;;3.10;1.50;;;;;;;13.95;60.47;97302.78;5024367;28;20513;-57
2022/08/13 00:45:18;;;;;;;2.42;1.17;;;;;;;13.74;61.20;97305.53;5019508;28;20107;-55
2022/08/13 00:50:35;;;;;;;3.10;1.20;;;;;;;13.48;62.04;97315.59;5017122;28;20045;-56
2022/08/13 00:53:04;;;;;;;4.53;1.45;;;;;;;13.34;62.74;97310.69;5015124;28;20070;-57
2022/08/13 00:55:33;;;;;;;2.33;1.50;;;;;;;13.14;63.47;97311.47;5019084;28;20042;-57
2022/08/13 00:57:59;;;;;;;2.00;1.40;;;;;;;12.98;64.38;97310.66;5020580;28;20323;-57
2022/08/13 01:00:28;;;;;;;3.92;2.08;;;;;;;13.16;63.48;97309.28;5029488;28;20072;-57
2022/08/13 01:02:56;;;;;;;5.15;1.65;;;;;;;13.19;63.25;97299.81;5029489;28;20041;-58
2022/08/13 01:05:35;;;;;;;1.80;1.20;;;;;;;13.24;63.44;97305.25;5029482;28;20087;-58
2022/08/13 01:08:09;;;;;;;2.67;1.40;;;;;;;13.09;64.07;97308.78;5015041;28;20390;-57
2022/08/13 01:10:49;;;;;;;3.13;1.52;;;;;;;13.01;64.23;97297.34;5027426;28;20044;-58
2022/08/13 01:13:26;;;;;;;3.55;1.50;;;;;;;12.67;65.69;97299.69;5012517;28;20046;-59
2022/08/13 01:15:58;;;;;;;3.40;1.60;;;;;;;12.65;65.86;97300.00;5015438;28;20050;-58
2022/08/13 01:18:27;;;;;;;2.55;1.40;;;;;;;12.68;65.37;97296.72;5010478;28;20045;-58
2022/08/13 01:21:10;;;;;;;2.93;1.50;;;;;;;12.66;65.56;97303.50;5022918;28;20275;-58
2022/08/13 01:23:38;;;;;;;3.15;1.50;;;;;;;12.57;66.08;97304.00;5025064;28;20292;-58
2022/08/13 01:26:10;;;;;;;2.38;1.40;;;;;;;12.70;65.69;97304.59;5028837;28;20328;-57
2022/08/13 01:28:40;;;;;;;2.80;1.58;;;;;;;12.67;65.69;97303.25;5019140;28;20128;-58
2022/08/13 01:31:10;;;;;;;2.40;1.40;;;;;;;12.68;65.70;97309.50;5019339;28;20519;-58
2022/08/13 01:33:49;;;;;;;5.53;1.75;;;;;;;12.48;66.60;97308.34;5024788;28;20068;-57
2022/08/13 01:36:18;;;;;;;5.05;1.88;;;;;;;12.30;67.14;97315.03;5028967;28;20045;-57
2022/08/13 01:39:05;;;;;;;2.30;1.60;;;;;;;12.16;67.55;97310.09;5025621;28;20582;-57
2022/08/13 01:41:41;;;;;;;3.72;1.42;;;;;;;12.13;67.83;97307.09;5026813;28;20128;-57
2022/08/13 01:44:24;;;;;;;3.97;1.70;;;;;;;12.19;67.79;97309.56;5009403;28;20450;-56
2022/08/13 01:50:33;;;;;;;2.33;1.55;;;;;;;12.17;67.88;97314.44;5027330;28;20037;-57
2022/08/13 01:52:42;;;;;;;;;;;;;;;12.23;67.45;97312.56;5019407;28;20075;-58
2022/08/13 01:55:10;;;;;;;4.05;1.88;;;;;;;12.16;67.72;97307.38;5019603;28;19922;-57
2022/08/13 01:57:43;;;;;;;3.25;1.70;;;;;;;12.10;68.15;97306.53;5017412;28;20430;-57
2022/08/13 02:00:21;;;;;;;3.20;1.77;;;;;;;12.03;68.37;97303.22;5015635;28;20499;-57
2022/08/13 02:02:53;;;;;;;2.80;1.50;;;;;;;12.00;68.53;97301.03;5019360;28;20393;-58
2022/08/13 02:05:22;;;;;;;2.95;1.67;;;;;;;12.06;68.52;97310.84;5028751;28;20048;-57
2022/08/13 02:08:11;;;;;;;4.22;1.70;;;;;;;12.26;67.46;97309.34;5016194;28;20517;-56
2022/08/13 02:10:43;;;;;;;3.15;1.70;;;;;;;12.36;66.87;97314.78;5010285;28;20054;-57
2022/08/13 02:13:14;;;;;;;4.25;1.58;;;;;;;12.53;66.18;97302.91;5021462;28;20071;-58
2022/08/13 02:15:45;;;;;;;4.97;1.80;;;;;;;12.55;66.10;97302.66;5028454;28;20048;-57
2022/08/13 02:18:20;;;;;;;2.72;1.58;;;;;;;12.55;66.17;97300.75;5014312;28;20066;-57
2022/08/13 02:20:53;;;;;;;2.22;1.48;;;;;;;12.64;65.92;97300.25;5023849;28;20103;-58
2022/08/13 02:23:28;;;;;;;2.30;1.50;;;;;;;12.62;65.78;97297.78;5018563;28;20088;-57
2022/08/13 02:26:17;;;;;;;4.10;1.92;;;;;;;12.54;66.27;97301.84;5028640;28;20076;-58
2022/08/13 02:28:44;;;;;;;3.25;1.70;;;;;;;12.31;66.80;97293.06;5027839;28;20049;-58
2022/08/13 02:31:16;;;;;;;3.97;1.98;;;;;;;12.34;66.88;97302.56;5027036;28;20569;-58
2022/08/13 02:34:03;;;;;;;3.72;1.55;;;;;;;12.22;67.17;97305.50;5023242;28;20045;-58
2022/08/13 02:36:36;;;;;;;4.28;1.88;;;;;;;12.00;68.38;97309.19;5027712;28;20519;-58
2022/08/13 02:39:06;;;;;;;2.63;1.50;;;;;;;12.19;67.77;97306.03;5018267;28;20532;-54
2022/08/13 02:41:38;;;;;;;5.10;1.48;;;;;;;12.29;67.20;97311.53;5011276;28;20189;-56
2022/08/13 02:44:20;;;;;;;4.50;1.55;;;;;;;12.41;66.69;97310.47;5007739;28;20037;-57
2022/08/13 02:47:01;;;;;;;2.65;1.60;;;;;;;12.43;66.40;97309.16;5009898;28;20045;-55
2022/08/13 02:49:27;;;;;;;3.10;1.63;;;;;;;12.46;66.31;97319.47;5024664;28;20045;-57
2022/08/13 02:52:09;;;;;;;4.32;1.60;;;;;;;12.59;66.03;97315.44;5011655;28;20045;-57
2022/08/13 02:54:42;;;;;;;4.07;1.60;;;;;;;12.26;67.19;97316.66;5026743;28;20041;-57
2022/08/13 02:57:22;;;;;;;5.53;2.10;;;;;;;12.13;68.02;97315.25;5022308;28;20034;-56
2022/08/13 02:59:50;;;;;;;3.15;1.95;;;;;;;12.11;68.29;97315.50;5013438;28;20497;-56
2022/08/13 03:02:30;;;;;;;4.35;1.50;;;;;;;11.99;68.79;97320.28;5020760;28;20121;-57
2022/08/13 03:04:56;;;;;;;3.15;1.73;;;;;;;12.16;67.99;97315.53;5008220;28;20505;-57
2022/08/13 03:07:25;;;;;;;3.75;1.60;;;;;;;12.21;67.94;97318.25;5012539;28;20475;-57
2022/08/13 03:09:55;;;;;;;3.88;1.85;;;;;;;12.38;67.14;97303.69;5021650;28;20069;-57
2022/08/13 03:12:26;;;;;;;3.80;1.60;;;;;;;12.36;67.27;97308.56;5013677;28;20049;-58
2022/08/13 03:14:58;;;;;;;3.40;1.80;;;;;;;12.24;67.43;97316.94;5023002;28;20249;-58
2022/08/13 03:17:25;;;;;;;3.60;1.80;;;;;;;12.02;68.63;97317.84;5014253;28;20390;-58
2022/08/13 03:19:55;;;;;;;3.25;1.80;;;;;;;12.04;68.45;97317.59;5021885;28;20046;-58
2022/08/13 03:22:24;;;;;;;5.75;1.77;;;;;;;11.93;68.86;97316.72;5007285;28;20050;-58
2022/08/13 03:24:53;;;;;;;4.95;2.10;;;;;;;11.79;69.43;97325.31;5011615;28;20120;-58
2022/08/13 03:27:19;;;;;;;3.40;1.83;;;;;;;11.74;69.63;97336.16;5026548;28;20045;-58
2022/08/13 03:29:53;;;;;;;4.47;1.70;;;;;;;11.72;69.81;97324.72;5026475;28;20519;-58
2022/08/13 03:32:46;;;;;;;3.05;1.95;;;;;;;11.69;70.00;97323.34;5026892;28;20180;-57
2022/08/13 03:35:24;;;;;;;2.45;1.80;;;;;;;11.70;70.05;97325.00;5019940;28;20096;-58
2022/08/13 03:38:12;;;;;;;3.17;2.00;;;;;;;11.83;69.59;97331.03;5011938;28;20897;-58
2022/08/13 03:43:24;;;;;;;3.05;1.90;;;;;;;12.01;68.97;97326.28;5021159;28;20042;-58
2022/08/13 03:45:54;;;;;;;4.38;2.00;;;;;;;11.92;69.02;97318.63;5014616;28;20056;-58
2022/08/13 03:48:24;;;;;;;3.30;1.70;;;;;;;11.89;69.06;97321.88;5006647;28;20046;-58
2022/08/13 03:50:51;;;;;;;3.08;2.05;;;;;;;11.93;68.88;97319.44;5019461;28;20405;-58
2022/08/13 03:53:21;;;;;;;4.18;2.00;;;;;;;11.89;69.13;97315.59;5026210;28;20523;-58
2022/08/13 03:56:09;;;;;;;5.45;2.30;;;;;;;11.84;69.65;97308.28;5012586;28;20472;-58
2022/08/13 03:58:39;;;;;;;3.03;1.73;;;;;;;11.75;69.90;97317.97;5006592;28;20452;-58
2022/08/13 04:01:06;;;;;;;4.30;1.95;;;;;;;11.93;69.20;97317.56;5016239;28;20049;-58
2022/08/13 04:03:40;;;;;;;3.45;1.90;;;;;;;12.04;68.86;97313.00;5018872;28;20084;-58
2022/08/13 04:06:15;;;;;;;4.55;2.22;;;;;;;12.08;68.70;97318.75;5006715;28;20096;-58
2022/08/13 04:08:44;;;;;;;5.10;2.20;;;;;;;12.19;68.06;97311.47;5020322;28;20393;-58
2022/08/13 04:11:17;;;;;;;2.72;1.70;;;;;;;11.95;69.13;97314.56;5004841;28;20123;-56
2022/08/13 04:13:47;;;;;;;2.85;1.98;;;;;;;11.88;69.60;97305.84;5012274;28;20045;-57
2022/08/13 04:16:33;;;;;;;3.50;1.95;;;;;;;11.71;70.26;97304.09;5009611;28;20476;-57
2022/08/13 04:19:01;;;;;;;4.50;1.88;;;;;;;11.80;70.20;97305.25;5019516;28;20057;-58
2022/08/13 04:21:31;;;;;;;4.60;2.10;;;;;;;11.80;70.43;97307.97;5023606;28;20481;-57
2022/08/13 04:24:03;;;;;;;4.00;2.20;;;;;;;11.60;70.93;97311.34;5018369;28;20353;-62
2022/08/13 04:26:31;;;;;;;4.10;2.27;;;;;;;11.63;70.70;97312.72;5021744;28;20053;-62
2022/08/13 04:29:01;;;;;;;3.58;1.95;;;;;;;11.65;70.84;97305.16;5018464;28;20469;-62
2022/08/13 04:31:28;;;;;;;4.03;2.13;;;;;;;11.66;70.88;97304.91;5017555;28;20088;-62
2022/08/13 04:34:16;;;;;;;4.60;2.40;;;;;;;11.77;70.52;97305.78;5023622;28;20409;-62
2022/08/13 04:37:03;;;;;;;3.95;2.10;;;;;;;11.91;69.84;97302.63;5020524;28;20777;-62
2022/08/13 04:39:31;;;;;;;2.80;1.75;;;;;;;12.10;69.26;97306.53;5022359;28;20255;-62
2022/08/13 04:42:18;;;;;;;3.72;2.33;;;;;;;12.29;68.81;97306.09;5017332;28;20045;-62
2022/08/13 04:44:58;;;;;;;5.82;2.47;;;;;;;12.31;68.66;97303.91;5006306;28;20109;-62
2022/08/13 04:47:27;;;;;;;3.60;2.25;;;;;;;12.39;68.24;97308.03;5018707;28;20045;-62
2022/08/13 04:49:54;;;;;;;5.47;1.85;;;;;;;12.52;67.81;97319.47;5022978;28;20497;-63
2022/08/13 04:52:20;;;;;;;4.00;2.10;;;;;;;12.47;68.27;97314.84;5019331;28;20049;-62
2022/08/13 04:54:55;;;;;;;3.55;2.13;;;;;;;12.52;68.16;97316.75;5020920;28;20115;-63
2022/08/13 04:57:22;;;;;;;3.80;2.25;;;;;;;12.52;68.01;97316.75;5012771;28;20041;-62
2022/08/13 05:00:09;;;;;;;2.83;2.00;;;;;;;12.37;68.92;97323.78;5019704;28;20088;-62
2022/08/13 05:02:40;;;;;;;3.13;2.08;;;;;;;12.14;69.93;97325.00;5016772;28;20040;-63
2022/08/13 05:05:11;;;;;;;6.78;2.70;;;;;;;12.14;70.39;97319.59;5018196;28;20462;-63
2022/08/13 05:07:48;;;;;;;4.60;2.38;;;;;;;12.27;69.62;97319.09;5022240;28;20619;-63
2022/08/13 05:10:21;;;;;;;6.95;2.40;;;;;;;12.28;69.90;97315.34;5016463;28;20053;-55
2022/08/13 05:13:01;;;;;;;3.60;2.20;;;;;;;12.33;69.62;97318.06;5013008;28;20053;-56
2022/08/13 05:15:31;;;;;;;2.97;2.00;;;;;;;12.47;69.33;97317.56;5019423;28;20129;-55
2022/08/13 05:18:15;;;;;;;4.38;2.17;;;;;;;12.57;69.34;97314.88;5012920;28;20124;-60
2022/08/13 05:20:56;;;;;;;9.15;3.45;;;;;;;12.58;69.50;97313.81;5011660;28;20541;-61
2022/08/13 05:23:24;;;;;;;3.30;2.00;;;;;;;12.73;68.93;97323.09;5020410;28;20410;-61
2022/08/13 05:26:11;;;;;;;4.75;2.38;;;;;;;12.82;68.85;97326.91;5020119;28;20126;-61
2022/08/13 05:29:05;;;;;;;2.92;1.92;;;;;;;12.86;69.23;97327.19;5020069;28;20119;-61
2022/08/13 05:31:34;;;;;;;3.85;2.22;;;;;;;13.00;68.43;97328.31;5017300;28;20192;-61
2022/08/13 05:34:20;;;;;;;5.55;2.28;;;;;;;13.11;68.51;97333.75;5023375;28;20135;-61
2022/08/13 05:36:47;;;;;;;3.53;2.17;;;;;;;13.25;68.13;97329.44;5025399;28;20062;-61
2022/08/13 05:39:34;;;;;;;4.47;2.15;;;;;;;13.36;68.63;97327.56;5026824;28;20046;-61
2022/08/13 05:42:09;;;;;;;3.53;2.13;;;;;;;13.51;67.83;97332.22;5027771;28;20481;-61
2022/08/13 05:44:36;;;;;;;4.18;1.90;;;;;;;13.65;67.99;97337.09;5028440;28;20033;-61
2022/08/13 05:47:05;;;;;;;4.20;1.80;;;;;;;13.76;67.56;97336.00;5027214;28;20061;-61
2022/08/13 05:49:33;;;;;;;4.38;1.88;;;;;;;13.91;67.20;97335.19;5028898;28;20130;-61
2022/08/13 05:52:20;;;;;;;3.60;1.85;;;;;;;14.15;66.23;97336.47;5011677;28;20073;-61
2022/08/13 05:55:12;;;;;;;5.55;2.10;;;;;;;14.28;66.13;97333.19;5012072;28;20088;-61
2022/08/13 05:57:58;;;;;;;3.45;1.83;;;;;;;14.49;65.66;97335.00;5008677;28;20112;-61
2022/08/13 06:03:27;;;;;;;3.97;1.80;;;;;;;14.78;64.40;97334.38;5026542;28;20505;-61
2022/08/13 06:06:16;;;;;;;2.70;1.50;;;;;;;15.12;63.13;97327.34;5025784;28;20160;-61
2022/08/13 06:08:51;;;;;;;3.78;1.75;;;;;;;15.35;63.31;97328.56;5013940;28;20508;-61
2022/08/13 06:11:18;;;;;;;4.10;1.98;;;;;;;15.51;62.83;97329.25;5025419;28;20042;-61
2022/08/13 06:14:04;;;;;;;4.38;2.00;;;;;;;15.68;61.90;97328.84;5025377;28;20147;-61
2022/08/13 06:16:34;;;;;;;4.88;1.80;;;;;;;15.89;59.80;97327.84;5023831;28;20045;-61
2022/08/13 06:19:24;;;;;;;5.00;1.65;;;;;;;16.21;58.81;97324.53;5028415;28;20132;-61
2022/08/13 06:21:57;;;;;;;2.92;1.70;;;;;;;16.40;58.03;97329.22;5027466;28;20042;-61
2022/08/13 06:24:27;;;;;;;2.90;1.90;;;;;;;16.52;57.51;97326.09;5028401;28;20044;-61
2022/08/13 06:26:53;;;;;;;2.65;1.50;;;;;;;16.63;57.28;97324.03;5026081;28;20049;-61
2022/08/13 06:29:20;;;;;;;3.60;1.80;;;;;;;16.76;56.46;97322.50;5027937;28;20091;-61
2022/08/13 06:31:48;;;;;;;2.75;1.65;;;;;;;16.85;56.53;97328.94;5013032;28;20052;-61
2022/08/13 06:34:15;;;;;;;4.88;2.00;;;;;;;16.94;56.31;97333.75;5008390;28;20490;-61
2022/08/13 06:37:03;;;;;;;6.15;1.70;;;;;;;17.07;55.75;97332.25;5024558;28;20060;-61
2022/08/13 06:39:35;;;;;;;4.00;1.77;;;;;;;17.17;55.58;97326.59;5027958;28;20049;-61
2022/08/13 06:42:04;;;;;;;2.17;1.50;;;;;;;17.25;55.14;97331.41;5009824;28;20046;-61
2022/08/13 06:44:34;;;;;;;2.50;1.55;;;;;;;17.39;55.13;97336.13;5024829;28;20142;-61
2022/08/13 06:47:04;;;;;;;2.42;1.58;;;;;;;17.47;54.77;97340.94;5010145;28;20046;-62
2022/08/13 06:49:33;;;;;;;3.08;1.77;;;;;;;17.56;54.78;97338.34;5018939;28;20435;-61
2022/08/13 06:52:20;;;;;;;3.25;1.42;;;;;;;17.69;54.42;97342.22;5008321;28;20046;-61
2022/08/13 06:54:48;;;;;;;2.65;1.52;;;;;;;17.88;53.62;97341.38;5020131;28;20108;-61
2022/08/13 06:57:19;;;;;;;4.38;1.95;;;;;;;18.02;53.17;97341.41;5027087;28;20049;-61
2022/08/13 06:59:52;;;;;;;3.55;1.55;;;;;;;18.19;53.24;97349.06;5024867;28;20045;-61
2022/08/13 07:02:42;;;;;;;4.15;2.40;;;;;;;18.30;52.12;97355.16;5006165;28;20675;-61
2022/08/13 07:05:10;;;;;;;2.35;1.40;;;;;;;18.35;51.95;97357.00;5020387;28;20045;-61
2022/08/13 07:07:48;;;;;;;3.28;1.80;;;;;;;18.40;51.71;97359.63;5025214;28;20037;-61
2022/08/13 07:10:15;;;;;;;8.55;1.70;;;;;;;18.45;51.98;97356.78;5013081;28;20510;-61
2022/08/13 07:12:42;;;;;;;2.50;1.48;;;;;;;18.55;51.90;97353.88;5025809;28;20547;-61
2022/08/13 07:15:18;;;;;;;3.67;1.75;;;;;;;18.64;51.53;97359.44;5020050;28;20038;-61
2022/08/13 07:18:06;;;;;;;2.67;1.50;;;;;;;18.69;51.71;97355.78;5027521;28;20639;-61
2022/08/13 07:20:34;;;;;;;3.22;1.60;;;;;;;18.77;51.42;97352.31;5015462;28;20043;-61
2022/08/13 07:23:04;;;;;;;3.15;1.60;;;;;;;18.84;51.50;97358.19;5027409;28;20041;-61
2022/08/13 07:25:52;;;;;;;3.58;1.80;;;;;;;18.91;51.01;97362.47;5026902;28;20041;-61
2022/08/13 07:28:29;;;;;;;4.55;1.77;;;;;;;19.02;51.05;97358.34;5026606;28;20037;-61
2022/08/13 07:31:27;;;;;;;2.67;1.50;;;;;;;19.14;50.83;97354.31;5025414;28;20041;-61
2022/08/13 07:34:13;;;;;;;5.43;2.03;;;;;;;19.19;50.60;97351.44;5021345;28;20473;-61
2022/08/13 07:36:40;;;;;;;2.65;1.73;;;;;;;19.26;50.01;97348.28;5007598;28;20057;-61
2022/08/13 07:39:23;;;;;;;2.30;1.67;;;;;;;19.36;50.17;97353.53;5005503;28;20390;-61
2022/08/13 07:41:54;;;;;;;3.85;1.67;;;;;;;19.47;50.00;97357.66;5018793;28;20401;-61
2022/08/13 07:44:30;;;;;;;3.08;1.77;;;;;;;19.36;49.52;97343.34;5016701;28;20099;-61
2022/08/13 07:47:17;;;;;;;3.92;1.30;;;;;;;19.48;49.55;97350.22;5024820;28;20493;-61
2022/08/13 07:49:56;;;;;;;4.25;1.88;;;;;;;19.53;49.55;97355.59;5015913;28;20540;-61
2022/08/13 07:52:27;;;;;;;2.75;1.60;;;;;;;19.71;48.96;97348.28;5014052;28;20125;-61
2022/08/13 07:54:53;;;;;;;3.03;1.70;;;;;;;19.80;48.87;97348.38;5017431;28;20202;-62
2022/08/13 07:57:20;;;;;;;2.22;1.55;;;;;;;19.92;49.19;97349.72;5020682;28;20057;-62
2022/08/13 07:59:54;;;;;;;2.58;1.60;;;;;;;19.97;48.47;97344.09;5020688;28;20132;-61
2022/08/13 08:02:41;;;;;;;3.40;1.90;;;;;;;20.01;48.03;97337.69;5022147;28;20045;-61
2022/08/13 08:05:13;;;;;;;3.20;1.75;;;;;;;20.17;47.57;97344.72;5017962;28;20390;-61
2022/08/13 08:07:47;;;;;;;2.65;1.80;;;;;;;20.33;47.08;97336.84;5017189;28;20196;-61
2022/08/13 08:10:34;;;;;;;3.00;1.63;;;;;;;20.48;46.36;97344.69;5007009;28;20079;-61
2022/08/13 08:13:01;;;;;;;3.13;1.60;;;;;;;20.59;46.15;97345.19;5012025;28;20103;-61
2022/08/13 08:15:27;;;;;;;2.83;1.85;;;;;;;20.65;46.72;97337.63;5014917;28;20041;-61
2022/08/13 08:18:14;;;;;;;4.28;1.48;;;;;;;20.74;46.15;97343.13;5025736;28;20077;-61
2022/08/13 08:21:05;;;;;;;2.58;1.55;;;;;;;20.78;45.55;97346.84;5025327;28;20045;-61
2022/08/13 08:23:59;;;;;;;2.25;1.30;;;;;;;20.82;45.74;97338.78;5013349;28;20582;-61
2022/08/13 08:26:30;;;;;;;3.58;1.60;;;;;;;20.85;45.11;97338.13;5023062;28;21559;-61
2022/08/13 08:28:58;;;;;;;3.83;1.50;;;;;;;20.87;46.02;97342.25;5009141;28;20111;-61
2022/08/13 08:31:26;;;;;;;2.40;1.85;;;;;;;21.00;45.47;97345.97;5020380;28;20092;-61
2022/08/13 08:34:12;;;;;;;2.92;1.60;;;;;;;21.10;45.42;97347.59;5019301;28;20033;-61
2022/08/13 08:36:41;;;;;;;4.90;1.92;;;;;;;21.28;44.82;97347.63;5024791;28;20041;-61
2022/08/13 08:44:58;;;;;;;3.67;1.52;;;;;;;21.47;43.97;97340.97;5017801;28;20041;-61
2022/08/13 08:47:35;;;;;;;3.83;1.80;;;;;;;21.52;44.32;97341.59;5020825;28;20138;-61
2022/08/13 08:50:16;;;;;;;2.85;1.60;;;;;;;21.56;44.16;97342.59;5023834;28;20116;-61
2022/08/13 08:56:04;;;;;;;2.50;1.70;;;;;;;21.92;43.03;97348.88;5014085;28;20053;-61
2022/08/13 08:58:40;;;;;;;2.67;1.70;;;;;;;22.01;42.76;97350.81;5023015;28;20065;-61
2022/08/13 09:01:11;;;;;;;2.70;1.50;;;;;;;22.12;42.13;97354.03;5016525;28;20061;-61
2022/08/13 09:03:42;;;;;;;4.55;1.48;;;;;;;22.15;42.20;97345.91;5023759;28;20046;-61
2022/08/13 09:06:31;;;;;;;3.25;1.25;;;;;;;22.24;42.15;97345.06;5022430;28;20049;-61
2022/08/13 09:09:19;;;;;;;3.55;1.60;;;;;;;22.32;41.92;97342.28;5023109;28;20483;-61
2022/08/13 09:11:52;;;;;;;2.17;1.40;;;;;;;22.35;41.86;97349.09;5026231;28;20049;-61
2022/08/13 09:14:26;;;;;;;5.47;1.60;;;;;;;22.45;41.33;97340.44;5024372;28;20077;-61
2022/08/13 09:16:55;;;;;;;2.67;1.33;;;;;;;22.55;40.27;97344.00;5025973;28;20136;-61
2022/08/13 09:19:23;;;;;;;3.25;1.70;;;;;;;22.55;40.63;97347.56;5019470;28;20449;-62
2022/08/13 09:22:15;;;;;;;2.83;1.48;;;;;;;22.49;40.86;97346.09;5027746;28;20095;-61
2022/08/13 09:24:47;;;;;;;5.10;1.63;;;;;;;22.55;40.88;97349.53;5026289;28;20045;-61
2022/08/13 09:27:18;;;;;;;2.67;1.40;;;;;;;22.55;41.37;97341.25;5023298;28;20076;-61
2022/08/13 09:29:48;;;;;;;2.92;1.50;;;;;;;22.62;40.12;97332.44;5012209;28;20050;-62
2022/08/13 09:32:28;;;;;;;2.78;1.58;;;;;;;22.79;40.18;97337.03;5019890;28;20046;-61
2022/08/13 09:35:00;;;;;;;2.78;1.40;;;;;;;22.82;40.01;97330.88;5018149;28;20053;-61
2022/08/13 09:37:27;;;;;;;3.78;1.50;;;;;;;22.87;39.54;97330.66;5026316;28;20049;-61
2022/08/13 09:40:16;;;;;;;2.42;1.27;;;;;;;22.99;39.78;97319.72;5026502;28;20051;-61
2022/08/13 09:43:07;;;;;;;4.18;1.40;;;;;;;23.08;39.32;97327.13;5010795;28;20491;-61
2022/08/13 09:45:37;;;;;;;4.22;2.13;;;;;;;23.08;38.45;97327.94;5015659;28;20041;-61
2022/08/13 09:48:09;;;;;;;2.90;1.67;;;;;;;23.13;38.92;97321.38;5015462;28;20050;-62
2022/08/13 09:50:56;;;;;;;4.43;1.60;;;;;;;23.34;38.46;97326.13;5023080;28;20056;-61
2022/08/13 09:53:25;;;;;;;2.28;1.50;;;;;;;23.31;38.38;97324.00;5014843;28;20115;-61
2022/08/13 09:55:57;;;;;;;3.58;1.58;;;;;;;23.46;37.93;97314.31;5021050;28;20056;-61
2022/08/13 09:58:23;;;;;;;3.75;1.60;;;;;;;23.52;38.08;97315.75;5022033;28;20045;-61
2022/08/13 10:01:04;;;;;;;5.30;1.63;;;;;;;23.61;37.48;97312.88;5013105;28;20053;-61
2022/08/13 10:03:39;;;;;;;4.43;1.50;;;;;;;23.66;37.89;97314.63;5026102;28;20045;-61
2022/08/13 10:06:07;;;;;;;3.55;1.50;;;;;;;23.72;36.61;97314.09;5026126;28;20045;-61
2022/08/13 10:08:34;;;;;;;3.42;1.40;;;;;;;23.69;36.52;97311.22;5021478;28;20037;-61
2022/08/13 10:11:04;;;;;;;3.77;1.37;;;;;;;23.76;35.43;97309.50;5023515;28;20149;-61
2022/08/13 10:13:32;;;;;;;2.53;1.50;;;;;;;23.77;35.92;97302.03;5025878;28;20092;-61
2022/08/13 10:16:16;;;;;;;2.35;1.40;;;;;;;24.06;36.40;97316.00;5023819;28;20045;-61
2022/08/13 10:18:43;;;;;;;3.45;1.45;;;;;;;24.07;35.78;97310.16;5027221;28;20544;-61
2022/08/13 10:21:12;;;;;;;5.57;1.58;;;;;;;24.16;35.21;97310.88;5027947;28;20049;-61
2022/08/13 10:23:47;;;;;;;3.45;1.52;;;;;;;24.18;35.16;97299.47;5026067;28;20446;-61
2022/08/13 10:26:18;;;;;;;4.07;1.60;;;;;;;24.40;34.95;97303.72;5025344;28;20049;-61
2022/08/13 10:28:45;;;;;;;2.58;1.23;;;;;;;24.45;34.77;97311.00;5025692;28;20107;-61
2022/08/13 10:31:14;;;;;;;4.53;2.50;;;;;;;24.48;34.74;97298.44;5026451;28;20052;-61
2022/08/13 10:34:00;;;;;;;2.05;1.30;;;;;;;24.75;34.31;97298.88;5019740;28;20485;-61
2022/08/13 10:36:30;;;;;;;3.35;1.30;;;;;;;24.77;33.24;97305.66;5026070;28;20115;-61
2022/08/13 10:39:02;;;;;;;3.55;1.27;;;;;;;24.61;33.57;97293.72;5025036;28;20057;-61
2022/08/13 10:41:31;;;;;;;;;;;;;;;24.77;32.52;97293.81;5026080;28;20135;-61
2022/08/13 10:43:59;;;;;;;3.65;1.33;;;;;;;24.82;32.00;97288.03;5021185;28;19925;-61
2022/08/13 10:46:31;;;;;;;3.47;1.45;;;;;;;24.88;31.51;97296.94;5024215;28;20421;-61
2022/08/13 10:49:00;;;;;;;2.30;1.33;;;;;;;25.05;31.43;97299.44;5023029;28;20057;-61
2022/08/13 10:51:28;;;;;;;3.38;1.30;;;;;;;25.10;32.04;97294.81;5007650;28;20041;-61
2022/08/13 10:53:58;;;;;;;3.03;1.20;;;;;;;25.19;31.09;97292.69;5012264;28;20060;-61
2022/08/13 10:56:30;;;;;;;4.38;1.20;;;;;;;25.37;31.50;97287.69;5023151;28;20119;-61
2022/08/13 10:58:59;;;;;;;;;;;;;;;25.51;31.70;97281.72;5020248;28;20130;-61
2022/08/13 11:01:28;;;;;;;1.92;1.27;;;;;;;25.56;32.01;97288.97;5023775;28;20343;-62
2022/08/13 11:03:58;;;;;;;2.28;1.20;;;;;;;25.64;31.67;97287.22;5014354;28;20042;-62
2022/08/13 11:06:36;;;;;;;2.45;1.42;;;;;;;25.67;31.76;97275.44;5016177;28;20041;-61
2022/08/13 11:09:05;;;;;;;3.13;1.52;;;;;;;25.79;31.09;97275.38;5022610;28;20072;-64
2022/08/13 11:11:57;;;;;;;2.47;1.25;;;;;;;25.82;30.62;97284.94;5024485;28;20045;-65
2022/08/13 11:14:27;;;;;;;2.33;1.23;;;;;;;25.81;30.72;97277.78;5022762;28;20050;-62
2022/08/13 11:17:04;;;;;;;5.20;1.60;;;;;;;25.75;30.69;97276.44;5017825;28;20045;-59
2022/08/13 11:19:48;;;;;;;3.10;1.50;;;;;;;25.30;31.04;97279.16;5015887;28;20345;-60
2022/08/13 11:22:28;;;;;;;3.10;1.45;;;;;;;25.31;30.43;97283.53;5024804;28;20259;-62
2022/08/13 11:24:59;;;;;;;3.38;1.35;;;;;;;25.44;30.25;97285.13;5024762;28;20049;-63
2022/08/13 11:27:46;;;;;;;3.40;1.30;;;;;;;25.71;29.77;97285.47;5024296;28;20107;-63
2022/08/13 11:30:19;;;;;;;2.38;1.08;;;;;;;25.79;30.15;97285.66;5013220;28;20057;-65
2022/08/13 11:33:04;;;;;;;3.25;1.35;;;;;;;25.68;30.03;97269.53;5015198;28;20123;-63
2022/08/13 11:35:40;;;;;;;2.42;1.17;;;;;;;25.65;29.58;97275.78;5023859;28;20056;-62
2022/08/13 11:38:15;;;;;;;2.30;1.10;;;;;;;25.49;29.22;97278.50;5022919;28;20140;-61
2022/08/13 11:40:51;;;;;;;1.48;0.95;;;;;;;25.61;28.51;97269.34;5022947;28;20124;-64
2022/08/13 11:43:27;;;;;;;2.60;1.10;;;;;;;25.91;27.93;97279.22;5018491;28;20056;-63
2022/08/13 11:46:14;;;;;;;3.20;1.17;;;;;;;26.22;27.85;97285.94;5016251;28;20461;-61
2022/08/13 11:48:45;;;;;;;1.58;1.00;;;;;;;26.20;28.35;97288.28;5017859;28;20045;-61
2022/08/13 11:51:32;;;;;;;2.85;0.95;;;;;;;26.26;28.10;97277.69;5023459;28;20056;-61
2022/08/13 11:54:23;;;;;;;3.22;1.10;;;;;;;26.53;28.13;97273.22;5017101;28;20125;-61
2022/08/13 11:57:04;;;;;;;1.77;1.10;;;;;;;26.69;27.66;97280.72;5021558;28;20520;-61
2022/08/13 11:59:35;;;;;;;2.25;1.23;;;;;;;26.87;27.44;97270.03;5015540;28;20037;-61
2022/08/13 12:02:11;;;;;;;8.00;1.17;;;;;;;26.87;26.72;97270.81;5017881;28;20293;-64
2022/08/13 12:04:43;;;;;;;3.88;1.33;;;;;;;26.69;27.13;97261.28;5016771;28;20068;-62
2022/08/13 12:07:15;;;;;;;2.80;1.10;;;;;;;26.64;27.72;97264.34;5011657;28;20501;-61
2022/08/13 12:09:42;;;;;;;3.60;1.10;;;;;;;26.86;27.24;97258.09;5021402;28;20045;-60
2022/08/13 12:12:14;;;;;;;3.28;1.27;;;;;;;26.89;27.23;97253.78;5015065;28;20042;-63
2022/08/13 12:14:49;;;;;;;2.13;1.00;;;;;;;26.92;27.48;97255.84;5023370;28;20498;-61
2022/08/13 12:17:17;;;;;;;4.60;1.10;;;;;;;27.18;26.90;97259.19;5021985;28;20041;-61
2022/08/13 12:20:05;;;;;;;2.25;1.15;;;;;;;27.03;25.94;97255.28;5019885;28;20058;-62
2022/08/13 12:22:51;;;;;;;1.90;1.20;;;;;;;27.00;26.29;97252.09;5023230;28;20128;-63
2022/08/13 12:25:21;;;;;;;2.25;1.15;;;;;;;27.16;25.92;97253.19;5022567;28;20401;-63
2022/08/13 12:28:16;;;;;;;4.05;1.30;;;;;;;27.40;25.29;97249.28;5024132;28;20412;-62
2022/08/13 12:31:04;;;;;;;2.40;1.30;;;;;;;27.36;26.22;97251.19;5010570;28;20052;-61
2022/08/13 12:33:34;;;;;;;2.55;1.33;;;;;;;27.51;26.48;97241.16;5023500;28;20059;-61
2022/08/13 12:36:10;;;;;;;2.17;1.15;;;;;;;27.70;25.96;97251.47;5014895;28;20046;-67